Time;durP1;ratioP1;P1;durP2;ratioP2;P2;SDS_P1;SDS_P2;PMS_P1;PMS_P2;Temp;Humidity;BMP_temperature;BMP_pressure;BME280_temperature;BME280_humidity;BME280_pressure;Samples;Min_cycle;Max_cycle;Signal;HPM_P1;HPM_P2
2022/03/14 00:00:36;;;;;;;25.70;18.80;;;;;;;7.79;63.50;102812.41;4998565;28;103815;-83
2022/03/14 00:03:06;;;;;;;31.05;19.38;;;;;;;7.80;63.74;102813.25;4999368;28;102238;-83
2022/03/14 00:05:33;;;;;;;26.13;18.75;;;;;;;7.80;63.91;102819.50;4991698;28;102481;-82
2022/03/14 00:08:01;;;;;;;26.92;17.73;;;;;;;7.80;63.36;102827.63;5008760;28;102434;-83
2022/03/14 00:10:49;;;;;;;25.92;18.92;;;;;;;7.80;64.05;102826.81;5011865;28;104995;-83
2022/03/14 00:13:38;;;;;;;28.50;19.38;;;;;;;7.80;63.70;102829.50;5008269;28;103521;-84
2022/03/14 00:16:05;;;;;;;25.13;18.33;;;;;;;7.80;63.96;102827.63;5012005;28;102323;-84
2022/03/14 00:18:54;;;;;;;24.92;18.63;;;;;;;7.81;63.56;102826.59;5013115;28;102619;-84
2022/03/14 00:21:23;;;;;;;26.50;18.85;;;;;;;7.80;63.50;102832.22;5010110;28;103902;-85
2022/03/14 00:23:50;;;;;;;27.13;18.13;;;;;;;7.79;63.96;102823.25;5012428;28;102243;-85
2022/03/14 00:26:17;;;;;;;27.88;18.30;;;;;;;7.79;63.29;102828.69;5011567;28;102455;-84
2022/03/14 00:28:45;;;;;;;25.45;18.13;;;;;;;7.79;64.20;102823.25;5013030;28;102579;-84
2022/03/14 00:31:12;;;;;;;27.38;18.85;;;;;;;7.80;63.53;102824.94;5009861;28;104029;-84
2022/03/14 00:33:41;;;;;;;26.02;18.92;;;;;;;7.80;64.23;102829.50;5011423;28;102385;-84
2022/03/14 00:36:09;;;;;;;29.30;19.45;;;;;;;7.78;63.80;102824.28;5002659;28;102515;-84
2022/03/14 00:38:36;;;;;;;28.08;18.85;;;;;;;7.80;63.36;102824.09;5011573;28;102458;-81
2022/03/14 00:41:03;;;;;;;30.33;18.48;;;;;;;7.79;64.43;102834.09;5014619;28;104154;-81
2022/03/14 00:43:30;;;;;;;27.55;18.85;;;;;;;7.79;63.36;102825.97;5015212;28;102339;-81
2022/03/14 00:45:58;;;;;;;28.17;18.67;;;;;;;7.78;63.81;102826.97;5014645;28;102304;-81
2022/03/14 00:48:25;;;;;;;23.17;17.17;;;;;;;7.79;63.71;102827.81;5016109;28;102254;-81
2022/03/14 00:50:53;;;;;;;24.75;18.15;;;;;;;7.78;64.46;102821.56;5014332;28;103807;-82
2022/03/14 00:53:20;;;;;;;25.75;17.90;;;;;;;7.79;63.13;102825.97;5015043;28;103902;-82
2022/03/14 00:55:46;;;;;;;25.67;17.73;;;;;;;7.78;63.83;102826.97;5014615;28;102073;-81
2022/03/14 00:58:12;;;;;;;23.85;18.05;;;;;;;7.79;63.94;102828.69;5016210;28;102302;-81
2022/03/14 01:00:40;;;;;;;25.42;18.33;;;;;;;7.79;63.46;102830.53;5012388;28;103940;-81
2022/03/14 01:03:08;;;;;;;26.88;18.23;;;;;;;7.80;63.80;102830.34;5014044;28;102260;-81
2022/03/14 01:05:34;;;;;;;26.05;16.83;;;;;;;7.80;63.85;102835.75;5014491;28;102421;-81
2022/03/14 01:08:02;;;;;;;24.95;17.48;;;;;;;7.79;63.52;102835.94;5013717;28;102225;-81
2022/03/14 01:10:29;;;;;;;24.80;17.45;;;;;;;7.80;63.41;102835.75;4995044;28;103602;-81
2022/03/14 01:12:57;;;;;;;26.75;17.80;;;;;;;7.79;63.25;102839.53;5014474;28;101970;-81
2022/03/14 01:15:24;;;;;;;26.55;18.05;;;;;;;7.79;63.54;102836.81;5013292;28;102381;-81
2022/03/14 01:17:50;;;;;;;26.83;18.10;;;;;;;7.80;63.38;102849.31;5015205;28;102222;-81
2022/03/14 01:20:19;;;;;;;26.85;18.67;;;;;;;7.80;64.07;102846.59;5013027;28;103857;-81
2022/03/14 01:22:45;;;;;;;26.45;18.75;;;;;;;7.79;64.09;102842.25;5014812;28;101993;-81
2022/03/14 01:25:12;;;;;;;24.20;17.27;;;;;;;7.80;63.96;102833.06;5013833;28;101983;-81
2022/03/14 01:27:40;;;;;;;27.30;18.23;;;;;;;7.80;64.05;102837.66;5015515;28;104511;-81
2022/03/14 01:30:07;;;;;;;27.42;18.60;;;;;;;7.80;63.53;102835.75;5014012;28;103960;-82
2022/03/14 01:32:34;;;;;;;25.52;18.70;;;;;;;7.79;64.05;102836.81;5013781;28;102559;-81
2022/03/14 01:35:00;;;;;;;25.40;17.17;;;;;;;7.79;63.92;102839.53;5011969;28;102466;-82
2022/03/14 01:37:30;;;;;;;27.38;18.75;;;;;;;7.80;63.72;102841.19;5015652;28;102759;-82
2022/03/14 01:39:57;;;;;;;25.42;18.38;;;;;;;7.79;64.05;102850.38;5013538;28;104128;-81
2022/03/14 01:42:23;;;;;;;26.40;18.52;;;;;;;7.80;63.96;102857.44;5013440;28;101924;-81
2022/03/14 01:44:51;;;;;;;25.77;17.95;;;;;;;7.80;63.50;102857.44;5013648;28;102402;-82
2022/03/14 01:47:18;;;;;;;24.95;18.70;;;;;;;7.79;63.51;102858.50;5013685;28;102407;-82
2022/03/14 01:49:46;;;;;;;25.27;18.60;;;;;;;7.80;63.54;102856.63;5012058;28;103870;-82
2022/03/14 01:52:13;;;;;;;23.38;17.52;;;;;;;7.80;64.09;102864.75;4994404;28;101939;-82
2022/03/14 01:54:41;;;;;;;26.45;17.92;;;;;;;7.79;64.16;102861.22;5004351;28;102449;-82
2022/03/14 01:57:08;;;;;;;25.98;18.35;;;;;;;7.79;63.74;102869.34;5008322;28;102327;-82
2022/03/14 01:59:36;;;;;;;25.70;17.75;;;;;;;7.80;64.02;102870.19;5009903;28;104052;-82
2022/03/14 02:02:03;;;;;;;26.67;18.73;;;;;;;7.79;63.62;102866.63;5006415;28;102351;-82
2022/03/14 02:04:30;;;;;;;27.00;18.05;;;;;;;7.79;64.03;102866.63;5009953;28;102515;-82
2022/03/14 02:06:57;;;;;;;25.80;18.30;;;;;;;7.79;63.87;102866.63;5014595;28;102097;-82
2022/03/14 02:09:24;;;;;;;26.00;18.65;;;;;;;7.80;63.59;102870.19;4995153;28;104135;-82
2022/03/14 02:12:08;;;;;;;25.73;19.02;;;;;;;7.78;64.17;102867.66;5008453;28;102608;-81
2022/03/14 02:14:42;;;;;;;26.35;18.92;;;;;;;7.79;64.05;102869.34;5010962;28;102465;-81
2022/03/14 02:17:12;;;;;;;27.15;18.70;;;;;;;7.79;64.35;102877.47;5014764;28;102478;-81
2022/03/14 02:19:40;;;;;;;25.75;18.17;;;;;;;7.79;63.94;102876.59;5012655;28;104009;-80
2022/03/14 02:22:12;;;;;;;25.75;17.48;;;;;;;7.79;64.18;102888.31;5013998;28;102456;-81
2022/03/14 02:24:39;;;;;;;30.23;19.50;;;;;;;7.78;64.00;102886.63;5012432;28;102042;-81
2022/03/14 02:27:06;;;;;;;25.73;17.92;;;;;;;7.79;63.22;102876.59;4997318;28;102554;-81
2022/03/14 02:29:33;;;;;;;26.23;18.65;;;;;;;7.79;63.60;102882.91;5013599;28;103965;-81
2022/03/14 02:31:59;;;;;;;26.00;18.25;;;;;;;7.80;63.78;102887.28;5013633;28;102560;-81
2022/03/14 02:34:26;;;;;;;23.60;16.85;;;;;;;7.79;63.80;102888.31;5012936;28;102206;-81
2022/03/14 02:36:52;;;;;;;25.27;17.80;;;;;;;7.80;63.48;102900.00;5015242;28;102294;-81
2022/03/14 02:39:20;;;;;;;23.73;17.02;;;;;;;7.79;64.07;102896.44;5013689;28;104345;-81
2022/03/14 02:41:47;;;;;;;23.63;17.52;;;;;;;7.79;63.66;102910.00;5014036;28;102228;-81
2022/03/14 02:44:14;;;;;;;23.30;16.77;;;;;;;7.80;64.11;102897.28;5014148;28;102644;-83
2022/03/14 02:46:40;;;;;;;24.50;17.65;;;;;;;7.79;63.49;102898.28;5013692;28;102301;-83
2022/03/14 02:49:08;;;;;;;24.83;17.83;;;;;;;7.79;63.67;102910.00;5012406;28;103897;-82
2022/03/14 02:51:38;;;;;;;25.48;17.83;;;;;;;7.80;63.84;102910.84;5012768;28;102537;-83
2022/03/14 02:54:05;;;;;;;23.52;17.20;;;;;;;7.78;63.59;102908.31;5013400;28;102297;-83
2022/03/14 02:56:34;;;;;;;23.03;16.33;;;;;;;7.79;64.50;102920.84;5013574;28;102363;-83
2022/03/14 02:59:01;;;;;;;24.92;17.63;;;;;;;7.79;63.56;102919.97;4994721;28;103825;-82
2022/03/14 03:01:27;;;;;;;25.17;17.02;;;;;;;7.79;63.89;102920.84;5013609;28;102338;-82
2022/03/14 03:03:53;;;;;;;24.50;17.17;;;;;;;7.79;63.29;102923.56;5011958;28;101920;-82
2022/03/14 03:06:23;;;;;;;21.42;16.27;;;;;;;7.79;63.33;102920.84;5014408;28;102118;-82
2022/03/14 03:08:50;;;;;;;24.90;16.92;;;;;;;7.79;63.53;102926.25;5012429;28;103971;-82
2022/03/14 03:11:17;;;;;;;24.85;17.17;;;;;;;7.79;63.82;102926.25;5013292;28;102469;-81
2022/03/14 03:13:48;;;;;;;23.23;17.65;;;;;;;7.79;63.75;102931.69;5013101;28;102580;-82
2022/03/14 03:16:15;;;;;;;;;;;;;;;7.79;63.17;102934.41;5013760;28;102454;-82
2022/03/14 03:18:44;;;;;;;23.88;16.73;;;;;;;7.78;63.89;102930.00;4992815;28;103934;-82
2022/03/14 03:21:11;;;;;;;23.97;17.13;;;;;;;7.79;64.45;102937.09;4993287;28;102690;-82
2022/03/14 03:23:38;;;;;;;24.42;17.20;;;;;;;7.79;63.75;102936.25;4993176;28;102456;-82
2022/03/14 03:26:08;;;;;;;24.98;17.60;;;;;;;7.79;63.31;102926.25;4994330;28;101978;-82
2022/03/14 03:28:35;;;;;;;24.05;17.35;;;;;;;7.79;64.16;102931.69;4992893;28;104121;-82
2022/03/14 03:31:06;;;;;;;24.05;17.17;;;;;;;7.79;64.29;102931.69;5003359;28;102115;-81
2022/03/14 03:33:36;;;;;;;23.58;17.17;;;;;;;7.78;64.40;102940.84;5012186;28;102472;-81
2022/03/14 03:36:04;;;;;;;23.33;17.50;;;;;;;7.78;63.70;102935.41;5013869;28;102364;-81
2022/03/14 03:38:30;;;;;;;23.65;17.17;;;;;;;7.79;64.09;102937.09;5012430;28;103893;-81
2022/03/14 03:40:58;;;;;;;24.80;17.33;;;;;;;7.78;63.61;102935.41;5012605;28;102729;-81
2022/03/14 03:43:25;;;;;;;23.83;17.55;;;;;;;7.78;63.97;102940.84;5012354;28;102247;-82
2022/03/14 03:45:51;;;;;;;23.48;17.15;;;;;;;7.78;64.21;102946.25;5001156;28;102872;-81
2022/03/14 03:48:20;;;;;;;22.40;17.02;;;;;;;7.79;63.68;102952.50;5003713;28;103964;-81
2022/03/14 03:50:47;;;;;;;22.27;16.80;;;;;;;7.79;63.64;102947.09;5012123;28;102571;-82
2022/03/14 03:53:14;;;;;;;24.55;17.77;;;;;;;7.79;63.92;102949.78;5012389;28;102002;-81
2022/03/14 03:55:40;;;;;;;21.63;16.42;;;;;;;7.79;63.50;102956.09;5003293;28;102466;-82
2022/03/14 03:58:07;;;;;;;21.55;16.33;;;;;;;7.79;63.76;102956.09;5005537;28;104064;-82
2022/03/14 04:00:34;;;;;;;23.38;16.88;;;;;;;7.78;63.99;102957.09;5005852;28;102120;-82
2022/03/14 04:03:00;;;;;;;22.83;16.88;;;;;;;7.78;64.27;102958.97;5010467;28;102004;-82
2022/03/14 04:05:29;;;;;;;22.48;16.90;;;;;;;7.79;63.61;102968.78;4994964;28;102578;-82
2022/03/14 04:08:00;;;;;;;23.70;16.45;;;;;;;7.78;63.10;102957.09;5004264;28;104043;-82
2022/03/14 04:10:30;;;;;;;23.02;16.08;;;;;;;7.79;63.65;102958.78;5013059;28;102326;-83
2022/03/14 04:13:03;;;;;;;;;;;;;;;7.79;64.01;102969.63;5012114;28;102587;-83
2022/03/14 04:15:30;;;;;;;21.45;16.25;;;;;;;7.78;63.86;102969.81;5008902;28;102241;-83
2022/03/14 04:17:57;;;;;;;21.17;16.58;;;;;;;7.78;64.06;102967.09;5015571;28;103895;-83
2022/03/14 04:20:24;;;;;;;23.05;16.02;;;;;;;7.79;64.20;102969.63;5016405;28;102366;-83
2022/03/14 04:22:53;;;;;;;22.35;16.05;;;;;;;7.79;64.17;102976.91;5016455;28;101818;-83
2022/03/14 04:25:19;;;;;;;22.73;15.88;;;;;;;7.78;64.18;102967.94;5017122;28;102721;-83
2022/03/14 04:27:47;;;;;;;22.90;16.15;;;;;;;7.79;63.86;102976.91;5015021;28;103953;-83
2022/03/14 04:30:16;;;;;;;21.30;16.25;;;;;;;7.79;63.80;102985.91;5016590;28;102291;-82
2022/03/14 04:32:43;;;;;;;22.55;16.20;;;;;;;7.77;63.66;102987.97;5000573;28;102454;-83
2022/03/14 04:35:10;;;;;;;20.92;15.10;;;;;;;7.78;63.58;102989.63;4997170;28;102188;-82
2022/03/14 04:37:36;;;;;;;21.20;15.23;;;;;;;7.79;63.65;102987.75;4996234;28;103890;-82
2022/03/14 04:40:06;;;;;;;23.65;15.68;;;;;;;7.79;63.54;102985.91;4996764;28;102668;-82
2022/03/14 04:42:34;;;;;;;21.55;15.77;;;;;;;7.78;63.86;102989.63;4997305;28;102918;-82
2022/03/14 04:45:01;;;;;;;23.50;17.20;;;;;;;7.78;64.61;103000.47;5017405;28;102549;-82
2022/03/14 04:47:28;;;;;;;25.48;17.05;;;;;;;7.78;63.72;102995.03;5018042;28;103965;-82
2022/03/14 04:49:54;;;;;;;22.02;16.52;;;;;;;7.78;64.18;103003.19;5017350;28;102480;-82
2022/03/14 04:52:21;;;;;;;25.48;17.27;;;;;;;7.79;63.69;103007.59;5017804;28;102483;-82
2022/03/14 04:54:48;;;;;;;21.35;15.48;;;;;;;7.78;63.72;103014.03;5019030;28;102140;-82
2022/03/14 04:57:17;;;;;;;22.48;15.02;;;;;;;7.79;64.21;103017.56;5016978;28;104095;-83
2022/03/14 04:59:43;;;;;;;22.40;16.50;;;;;;;7.79;63.74;103023.84;5007813;28;102571;-82
2022/03/14 05:02:10;;;;;;;22.50;16.35;;;;;;;7.79;64.07;103023.84;5015319;28;102040;-83
2022/03/14 05:04:37;;;;;;;22.50;15.88;;;;;;;7.79;63.62;103021.13;5017866;28;102383;-83
2022/03/14 05:07:04;;;;;;;19.20;15.25;;;;;;;7.79;63.78;103029.28;5016435;28;103851;-83
2022/03/14 05:09:30;;;;;;;20.48;15.25;;;;;;;7.79;63.89;103029.28;5016361;28;102081;-83
2022/03/14 05:11:57;;;;;;;21.58;16.05;;;;;;;7.79;63.40;103031.97;5017346;28;102173;-83
2022/03/14 05:14:25;;;;;;;22.95;16.40;;;;;;;7.79;64.12;103033.84;5016743;28;102742;-83
2022/03/14 05:16:52;;;;;;;20.42;15.13;;;;;;;7.79;64.20;103028.41;5013671;28;105144;-83
2022/03/14 05:19:18;;;;;;;23.35;15.80;;;;;;;7.79;63.48;103034.69;4996059;28;102300;-83
2022/03/14 05:21:45;;;;;;;23.35;16.70;;;;;;;7.78;63.63;103035.72;4995047;28;102307;-83
2022/03/14 05:24:12;;;;;;;23.30;15.98;;;;;;;7.79;64.48;103040.13;4996177;28;102229;-83
2022/03/14 05:26:39;;;;;;;21.23;14.95;;;;;;;7.79;63.24;103037.41;5007309;28;104090;-83
2022/03/14 05:29:05;;;;;;;21.13;14.82;;;;;;;7.79;63.51;103034.69;5014682;28;102508;-83
2022/03/14 05:31:33;;;;;;;20.40;15.55;;;;;;;7.79;63.65;103034.69;5014059;28;102398;-83
2022/03/14 05:34:00;;;;;;;23.92;16.15;;;;;;;7.80;63.86;103036.38;5013831;28;102456;-83
2022/03/14 05:36:26;;;;;;;22.25;16.00;;;;;;;7.79;63.27;103040.13;5013744;28;104075;-83
2022/03/14 05:38:53;;;;;;;21.33;15.80;;;;;;;7.79;63.96;103040.13;5004417;28;102471;-81
2022/03/14 05:41:19;;;;;;;21.25;16.00;;;;;;;7.80;64.15;103040.94;5013150;28;102662;-81
2022/03/14 05:43:46;;;;;;;18.85;14.40;;;;;;;7.80;63.51;103046.38;5015176;28;102172;-81
2022/03/14 05:46:12;;;;;;;20.30;15.60;;;;;;;7.80;63.69;103059.94;5012577;28;103875;-82
2022/03/14 05:48:40;;;;;;;22.25;15.50;;;;;;;7.80;64.14;103058.06;5012318;28;102051;-81
2022/03/14 05:51:07;;;;;;;21.77;16.25;;;;;;;7.81;64.36;103062.44;5012481;28;102008;-81
2022/03/14 05:53:34;;;;;;;22.60;16.23;;;;;;;7.81;64.03;103058.88;5014172;28;102725;-81
2022/03/14 05:56:00;;;;;;;19.67;15.43;;;;;;;7.81;63.69;103065.13;5007730;28;103972;-81
2022/03/14 05:58:27;;;;;;;23.20;16.58;;;;;;;7.81;63.85;103070.56;5002470;28;102414;-81
2022/03/14 06:00:54;;;;;;;21.52;15.27;;;;;;;7.82;63.93;103072.22;4999527;28;101948;-82
2022/03/14 06:03:20;;;;;;;19.30;14.68;;;;;;;7.81;63.85;103073.28;5013149;28;102180;-82
2022/03/14 06:05:49;;;;;;;19.92;15.57;;;;;;;7.82;63.47;103072.22;4994612;28;103810;-82
2022/03/14 06:08:16;;;;;;;20.13;14.23;;;;;;;7.82;64.11;103077.66;5013371;28;102495;-82
2022/03/14 06:10:46;;;;;;;20.05;15.30;;;;;;;7.83;64.17;103079.34;5011778;28;102505;-81
2022/03/14 06:13:13;;;;;;;20.50;14.73;;;;;;;7.82;63.85;103074.94;5014583;28;102326;-82
2022/03/14 06:15:39;;;;;;;20.25;14.77;;;;;;;7.83;64.38;103084.78;5009620;28;103869;-82
2022/03/14 06:18:06;;;;;;;21.70;15.18;;;;;;;7.83;63.93;103078.50;5003101;28;102458;-81
2022/03/14 06:20:32;;;;;;;22.20;14.43;;;;;;;7.83;63.80;103084.78;5011373;28;102476;-82
2022/03/14 06:23:01;;;;;;;21.00;14.93;;;;;;;7.84;63.84;103085.59;5011090;28;102167;-83
2022/03/14 06:25:28;;;;;;;20.88;15.15;;;;;;;7.84;64.22;103081.03;5012875;28;103977;-82
2022/03/14 06:27:55;;;;;;;21.48;15.02;;;;;;;7.84;64.26;103086.44;5013900;28;102307;-82
2022/03/14 06:30:22;;;;;;;22.10;15.32;;;;;;;7.85;65.03;103084.56;5013491;28;102289;-81
2022/03/14 06:32:49;;;;;;;20.33;15.18;;;;;;;7.84;63.99;103086.44;5014008;28;102081;-85
2022/03/14 06:35:17;;;;;;;21.45;15.43;;;;;;;7.86;64.08;103094.38;5012851;28;103833;-83
2022/03/14 06:37:45;;;;;;;19.90;15.05;;;;;;;7.86;64.55;103095.22;5013577;28;102008;-83
2022/03/14 06:40:13;;;;;;;20.27;14.80;;;;;;;7.87;64.39;103094.19;5009383;28;102463;-83
2022/03/14 06:42:41;;;;;;;22.30;14.68;;;;;;;7.87;64.16;103102.31;5010226;28;102130;-84
2022/03/14 06:45:09;;;;;;;19.60;14.70;;;;;;;7.89;64.18;103102.13;5009464;28;103978;-83
2022/03/14 06:47:38;;;;;;;23.23;15.27;;;;;;;7.89;64.56;103100.25;5011623;28;102517;-83
2022/03/14 06:50:05;;;;;;;19.15;14.15;;;;;;;7.90;64.23;103101.94;5011096;28;102547;-87
2022/03/14 06:52:32;;;;;;;19.52;14.55;;;;;;;7.91;64.38;103108.19;5014277;28;102330;-88
2022/03/14 06:54:59;;;;;;;19.25;14.65;;;;;;;7.91;64.24;103114.44;4993327;28;104098;-82
2022/03/14 06:57:27;;;;;;;22.50;14.25;;;;;;;7.92;64.25;103116.13;4993775;28;101974;-81
2022/03/14 06:59:53;;;;;;;20.35;13.82;;;;;;;7.92;64.12;103110.69;5005234;28;102104;-82
2022/03/14 07:02:20;;;;;;;19.63;13.68;;;;;;;7.93;63.53;103116.97;5008011;28;102813;-81
2022/03/14 07:04:47;;;;;;;19.88;13.40;;;;;;;7.93;63.91;103123.25;5011179;28;103919;-81
2022/03/14 07:07:13;;;;;;;19.00;13.52;;;;;;;7.94;64.27;103116.78;5005971;28;103092;-81
2022/03/14 07:09:40;;;;;;;19.67;12.95;;;;;;;7.96;64.10;103116.56;5013490;28;102523;-81
2022/03/14 07:12:11;;;;;;;17.15;13.02;;;;;;;7.95;63.66;103118.44;4994889;28;102197;-81
2022/03/14 07:14:40;;;;;;;16.05;12.57;;;;;;;7.98;63.87;103119.09;5011114;28;104043;-82
2022/03/14 07:17:07;;;;;;;19.08;12.95;;;;;;;7.98;64.24;103119.09;5012617;28;102103;-81
2022/03/14 07:19:34;;;;;;;19.52;13.45;;;;;;;8.00;64.03;103117.03;5011985;28;102062;-81
2022/03/14 07:22:02;;;;;;;17.33;12.60;;;;;;;8.00;63.95;103112.44;5013053;28;102325;-82
2022/03/14 07:24:29;;;;;;;17.95;12.95;;;;;;;8.02;64.45;103123.09;5009366;28;103981;-81
2022/03/14 07:26:56;;;;;;;16.70;12.23;;;;;;;8.03;64.53;103122.06;5011714;28;102451;-82
2022/03/14 07:29:23;;;;;;;18.58;13.38;;;;;;;8.03;64.07;103111.22;4991201;28;102317;-82
2022/03/14 07:31:51;;;;;;;17.65;12.52;;;;;;;8.02;64.21;103110.38;5013263;28;102342;-82
2022/03/14 07:34:17;;;;;;;18.15;13.13;;;;;;;8.04;63.66;103102.91;5012338;28;103916;-82
2022/03/14 07:36:45;;;;;;;17.05;12.65;;;;;;;8.05;63.98;103109.16;5002506;28;102661;-82
2022/03/14 07:39:12;;;;;;;16.08;12.23;;;;;;;8.06;63.92;103110.81;4998083;28;102498;-81
2022/03/14 07:41:40;;;;;;;20.27;13.00;;;;;;;8.07;63.45;103115.19;5007634;28;102503;-81
2022/03/14 07:44:07;;;;;;;16.40;11.50;;;;;;;8.08;63.27;103108.78;5012244;28;104031;-81
2022/03/14 07:46:34;;;;;;;16.50;11.35;;;;;;;8.08;63.51;103109.59;4992222;28;102391;-81
2022/03/14 07:49:03;;;;;;;17.50;12.38;;;;;;;8.09;64.00;103115.84;5014928;28;102116;-82
2022/03/14 07:51:33;;;;;;;17.58;11.57;;;;;;;8.12;64.07;103118.19;5016404;28;102388;-82
2022/03/14 07:53:59;;;;;;;15.55;12.40;;;;;;;8.13;63.73;103117.13;5012058;28;104039;-82
2022/03/14 07:56:26;;;;;;;13.73;11.05;;;;;;;8.14;63.14;103116.09;5014051;28;102334;-82
2022/03/14 07:58:54;;;;;;;15.45;11.80;;;;;;;8.15;63.71;103109.63;5005719;28;102951;-82
2022/03/14 08:01:40;;;;;;;15.30;11.05;;;;;;;8.16;63.20;103117.59;5011944;28;102309;-82
2022/03/14 08:04:08;;;;;;;15.75;11.27;;;;;;;8.17;64.13;103113.00;5007263;28;133161;-82
2022/03/14 08:06:42;;;;;;;15.63;11.27;;;;;;;8.17;63.66;103121.13;5014685;28;111289;-82
2022/03/14 08:09:09;;;;;;;14.95;11.43;;;;;;;8.17;63.74;103119.25;5014010;28;101898;-83
2022/03/14 08:11:47;;;;;;;16.25;11.25;;;;;;;8.18;63.40;103114.66;5013563;28;102444;-82
2022/03/14 08:14:13;;;;;;;14.93;11.05;;;;;;;8.21;63.41;103124.28;5015109;28;104118;-82
2022/03/14 08:16:52;;;;;;;14.82;10.75;;;;;;;8.20;63.59;103118.03;5017904;28;102751;-82
2022/03/14 08:19:20;;;;;;;15.90;11.20;;;;;;;8.23;63.10;103114.94;5021966;28;102088;-82
2022/03/14 08:21:47;;;;;;;15.52;11.05;;;;;;;8.24;63.79;103113.88;5000548;28;102261;-82
2022/03/14 08:24:14;;;;;;;13.40;10.43;;;;;;;8.25;62.98;103110.13;5013706;28;104053;-82
2022/03/14 08:26:42;;;;;;;14.77;10.75;;;;;;;8.25;63.78;103115.56;5010068;28;102555;-80
2022/03/14 08:29:09;;;;;;;13.75;10.50;;;;;;;8.25;63.21;103110.13;5013314;28;103813;-80
2022/03/14 08:31:36;;;;;;;14.30;10.35;;;;;;;8.26;63.42;103116.38;4996254;28;102445;-81
2022/03/14 08:34:15;;;;;;;13.68;10.10;;;;;;;8.25;64.05;103120.97;5008114;28;103971;-80
2022/03/14 08:36:43;;;;;;;15.20;10.40;;;;;;;8.24;63.27;103119.31;5011333;28;102129;-81
2022/03/14 08:39:10;;;;;;;14.75;10.93;;;;;;;8.24;63.25;103119.31;5012492;28;102355;-81
2022/03/14 08:41:36;;;;;;;12.70;9.65;;;;;;;8.24;63.37;103122.03;5012599;28;102626;-81
2022/03/14 08:44:03;;;;;;;16.85;10.10;;;;;;;8.24;63.73;103118.47;5013487;28;104107;-80
2022/03/14 08:46:30;;;;;;;13.43;9.88;;;;;;;8.22;63.30;103120.53;5012459;28;101903;-80
2022/03/14 08:48:57;;;;;;;12.05;9.13;;;;;;;8.23;63.52;103123.06;5009407;28;102330;-80
2022/03/14 08:51:23;;;;;;;13.45;9.98;;;;;;;8.22;63.32;103121.38;5012986;28;102765;-80
2022/03/14 08:53:51;;;;;;;12.05;9.43;;;;;;;8.22;63.79;103128.66;5005238;28;103988;-80
2022/03/14 08:56:18;;;;;;;13.00;9.05;;;;;;;8.21;63.41;103125.13;4994779;28;102674;-79
2022/03/14 08:58:45;;;;;;;14.48;10.40;;;;;;;8.20;63.33;103118.03;5004537;28;102540;-79
2022/03/14 09:01:12;;;;;;;11.60;9.15;;;;;;;8.19;63.92;103121.78;5011436;28;102506;-80
2022/03/14 09:03:39;;;;;;;12.80;9.55;;;;;;;8.19;64.08;103117.19;5008861;28;103986;-80
2022/03/14 09:06:05;;;;;;;14.70;10.98;;;;;;;8.19;63.73;103114.47;5011933;28;102576;-80
2022/03/14 09:08:34;;;;;;;11.93;9.98;;;;;;;8.19;63.07;103121.78;5012368;28;102405;-80
2022/03/14 09:11:19;;;;;;;14.20;9.65;;;;;;;8.19;63.88;103117.19;5002037;28;102422;-80
2022/03/14 09:13:46;;;;;;;11.55;9.35;;;;;;;8.18;64.06;103115.50;5010489;28;104043;-81
2022/03/14 09:16:13;;;;;;;12.25;9.35;;;;;;;8.18;64.19;103120.91;5011452;28;104028;-80
2022/03/14 09:18:41;;;;;;;13.70;9.38;;;;;;;8.18;63.68;103122.81;5004994;28;102068;-80
2022/03/14 09:21:07;;;;;;;14.52;9.80;;;;;;;8.18;64.28;103114.66;5013861;28;102375;-80
2022/03/14 09:23:34;;;;;;;13.23;9.43;;;;;;;8.19;63.51;103116.38;5011698;28;103898;-80
2022/03/14 09:26:01;;;;;;;12.30;9.20;;;;;;;8.17;63.52;103113.00;5006847;28;102462;-80
2022/03/14 09:28:29;;;;;;;14.70;9.75;;;;;;;8.18;63.90;103109.25;5005112;28;102544;-80
2022/03/14 09:30:56;;;;;;;12.13;8.88;;;;;;;8.16;63.66;103100.47;4990906;28;102286;-80
2022/03/14 09:33:23;;;;;;;10.90;8.63;;;;;;;8.17;63.54;103102.16;4956553;28;1597280;-80
2022/03/14 09:35:50;;;;;;;12.90;9.40;;;;;;;8.17;63.39;103104.84;5013264;28;102041;-79
2022/03/14 09:38:17;;;;;;;12.38;8.82;;;;;;;8.17;63.90;103102.16;5011900;28;102339;-80
2022/03/14 09:40:45;;;;;;;11.85;9.18;;;;;;;8.17;63.66;103102.16;5013332;28;102688;-80
2022/03/14 09:43:15;;;;;;;13.50;9.15;;;;;;;8.17;64.34;103088.59;4999581;28;104263;-80
2022/03/14 09:45:46;;;;;;;12.48;9.20;;;;;;;8.16;64.44;103095.06;4994055;28;102057;-80
2022/03/14 09:48:14;;;;;;;18.58;9.48;;;;;;;8.16;63.83;103089.63;5006357;28;102136;-80
2022/03/14 09:50:44;;;;;;;12.03;8.73;;;;;;;8.16;63.97;103095.06;5012567;28;102230;-81
2022/03/14 09:53:13;;;;;;;11.85;8.98;;;;;;;8.16;64.32;103089.63;5009154;28;104004;-80
2022/03/14 09:55:41;;;;;;;12.32;8.73;;;;;;;8.16;63.65;103095.88;4990921;28;102280;-81
2022/03/14 09:58:09;;;;;;;11.63;9.15;;;;;;;8.15;63.65;103087.94;5008194;28;102090;-81
2022/03/14 10:00:36;;;;;;;13.35;8.80;;;;;;;8.17;64.17;103096.72;5014883;28;102766;-81
2022/03/14 10:03:05;;;;;;;12.05;8.27;;;;;;;8.15;63.29;103088.78;5009912;28;102481;-81
2022/03/14 10:05:33;;;;;;;11.15;8.23;;;;;;;8.17;63.92;103088.59;5008524;28;102606;-82
2022/03/14 10:08:00;;;;;;;11.85;8.32;;;;;;;8.17;63.83;103085.88;4999399;28;102167;-80
2022/03/14 10:10:27;;;;;;;11.05;7.95;;;;;;;8.17;63.61;103086.69;5000924;28;102277;-80
2022/03/14 10:12:57;;;;;;;12.15;8.00;;;;;;;8.18;63.30;103084.81;5012730;28;103903;-80
2022/03/14 10:15:25;;;;;;;;;;;;;;;8.16;63.76;103084.19;5013891;28;102547;-79
2022/03/14 10:17:51;;;;;;;9.55;7.40;;;;;;;8.17;63.08;103075.03;5008770;28;102060;-79
2022/03/14 10:20:21;;;;;;;10.70;8.13;;;;;;;8.18;63.67;103076.69;5019298;28;101990;-79
2022/03/14 10:22:48;;;;;;;10.90;8.13;;;;;;;8.17;63.60;103069.59;4996726;28;103820;-80
2022/03/14 10:25:18;;;;;;;10.23;7.40;;;;;;;8.17;62.74;103067.72;4997068;28;102127;-81
2022/03/14 10:27:47;;;;;;;11.32;7.55;;;;;;;8.18;63.00;103072.09;5016659;28;102447;-81
2022/03/14 10:30:21;;;;;;;;;;;;;;;8.17;63.00;103069.59;5016336;28;102353;-81
2022/03/14 10:32:48;;;;;;;9.35;7.40;;;;;;;8.15;63.58;103064.38;5014608;28;103911;-81
2022/03/14 10:35:20;;;;;;;9.32;7.32;;;;;;;8.16;62.75;103067.94;4999874;28;102437;-80
2022/03/14 10:37:57;;;;;;;12.30;7.63;;;;;;;8.15;63.26;103061.66;5007640;28;102021;-80
2022/03/14 10:40:29;;;;;;;9.98;7.25;;;;;;;8.17;63.13;103058.75;5015561;28;102570;-81
2022/03/14 10:42:56;;;;;;;10.77;7.47;;;;;;;8.17;63.71;103062.28;5015161;28;103994;-80
2022/03/14 10:45:23;;;;;;;9.32;7.03;;;;;;;8.17;62.84;103061.47;5016382;28;102249;-81
2022/03/14 10:47:53;;;;;;;9.68;7.47;;;;;;;8.17;63.80;103059.59;5015983;28;102014;-80
2022/03/14 10:50:33;;;;;;;9.52;7.45;;;;;;;8.17;63.36;103053.31;5015894;28;102837;-82
2022/03/14 10:53:06;;;;;;;8.48;6.60;;;;;;;8.17;63.21;103046.03;5013537;28;104041;-80
2022/03/14 10:55:38;;;;;;;8.65;7.05;;;;;;;8.19;64.14;103056.69;5011571;28;102814;-81
2022/03/14 10:58:10;;;;;;;10.20;7.57;;;;;;;8.18;64.15;103049.56;4992851;28;102813;-82
2022/03/14 11:00:47;;;;;;;10.43;7.38;;;;;;;8.20;63.11;103061.06;5004628;28;102084;-82
2022/03/14 11:03:25;;;;;;;9.73;7.13;;;;;;;8.20;63.55;103047.50;5009657;28;103993;-81
2022/03/14 11:05:54;;;;;;;9.45;7.47;;;;;;;8.21;63.60;103048.34;5009522;28;102093;-81
2022/03/14 11:08:41;;;;;;;14.35;7.70;;;;;;;8.21;63.68;103049.16;5007618;28;102701;-82
2022/03/14 11:11:09;;;;;;;10.60;7.28;;;;;;;8.23;64.25;103055.25;5011953;28;102208;-81
2022/03/14 11:13:44;;;;;;;10.13;7.25;;;;;;;8.24;64.00;103054.22;5009603;28;103930;-81
2022/03/14 11:16:18;;;;;;;11.00;7.35;;;;;;;8.23;63.68;103062.56;5008885;28;103564;-81